createdAt,value
2023-03-01T00:01:46.397Z,57.67
2023-03-01T00:04:13.860Z,58.15
2023-03-01T00:06:42.893Z,56.78
2023-03-01T00:09:10.140Z,52.40
2023-03-01T00:11:37.164Z,51.65
2023-03-01T00:14:41.471Z,54.75
2023-03-01T00:17:08.644Z,51.78
2023-03-01T00:19:36.168Z,50.25
2023-03-01T00:22:03.207Z,51.20
2023-03-01T00:24:30.463Z,49.20
2023-03-01T00:26:57.462Z,51.70
2023-03-01T00:29:27.640Z,54.50
2023-03-01T00:31:55.986Z,58.70
2023-03-01T00:34:23.125Z,54.05
2023-03-01T00:36:50.179Z,52.13
2023-03-01T00:39:17.636Z,53.50
2023-03-01T00:41:45.328Z,50.28
2023-03-01T00:44:16.772Z,52.92
2023-03-01T00:46:44.019Z,55.65
2023-03-01T00:50:14.040Z,52.53
2023-03-01T00:53:31.012Z,48.55
2023-03-01T00:55:59.313Z,54.00
2023-03-01T00:59:36.159Z,51.00
2023-03-01T01:02:05.813Z,59.75
2023-03-01T01:04:32.786Z,58.65
2023-03-01T01:07:00.031Z,58.63
2023-03-01T01:09:28.114Z,54.65
2023-03-01T01:11:55.350Z,57.22
2023-03-01T01:14:22.344Z,51.90
2023-03-01T01:17:40.132Z,52.35
2023-03-01T01:20:08.613Z,50.72
2023-03-01T01:22:35.836Z,53.35
2023-03-01T01:25:03.038Z,54.75
2023-03-01T01:27:30.924Z,54.63
2023-03-01T01:29:57.929Z,52.13
2023-03-01T01:33:24.756Z,51.47
2023-03-01T01:37:10.635Z,53.30
2023-03-01T01:39:40.743Z,48.38
2023-03-01T01:42:16.601Z,49.03
2023-03-01T01:45:30.547Z,48.80
2023-03-01T01:48:05.713Z,58.95
2023-03-01T01:50:40.533Z,60.95
2023-03-01T01:53:16.076Z,60.92
2023-03-01T01:55:52.318Z,61.53
2023-03-01T01:59:10.231Z,56.10
2023-03-01T02:01:37.892Z,57.78
2023-03-01T02:04:11.225Z,60.33
2023-03-01T02:07:22.404Z,64.18
2023-03-01T02:09:53.517Z,73.93
2023-03-01T02:12:25.577Z,76.20
2023-03-01T02:14:52.761Z,72.38
2023-03-01T02:17:21.993Z,65.38
2023-03-01T02:20:31.000Z,68.90
2023-03-01T02:23:00.581Z,60.22
2023-03-01T02:26:02.276Z,65.85
2023-03-01T02:28:36.484Z,59.05
2023-03-01T02:35:07.460Z,60.35
2023-03-01T02:37:37.425Z,58.72
2023-03-01T02:40:12.655Z,53.05
2023-03-01T02:42:56.985Z,59.67
2023-03-01T02:45:24.880Z,61.55
2023-03-01T02:47:56.311Z,67.93
2023-03-01T02:50:29.414Z,63.85
2023-03-01T02:53:34.084Z,65.50
2023-03-01T02:56:02.295Z,70.00
2023-03-01T02:58:34.183Z,69.67
2023-03-01T03:01:02.287Z,67.22
2023-03-01T03:03:29.676Z,65.65
2023-03-01T03:05:56.703Z,65.87
2023-03-01T03:08:25.090Z,71.17
2023-03-01T03:10:53.832Z,73.97
2023-03-01T03:13:23.035Z,78.78
2023-03-01T03:15:50.377Z,65.57
2023-03-01T03:18:18.461Z,66.97
2023-03-01T03:20:46.950Z,69.80
2023-03-01T03:23:14.941Z,69.20
2023-03-01T03:25:42.013Z,67.15
2023-03-01T03:28:16.817Z,67.72
2023-03-01T03:30:44.342Z,62.80
2023-03-01T03:34:20.748Z,62.22
2023-03-01T03:36:47.779Z,62.55
2023-03-01T03:39:15.085Z,64.80
2023-03-01T03:41:42.076Z,60.80
2023-03-01T03:44:09.288Z,59.67
2023-03-01T03:46:36.558Z,59.53
2023-03-01T03:49:03.931Z,61.43
2023-03-01T03:51:30.832Z,59.60
2023-03-01T03:53:58.056Z,55.60
2023-03-01T03:56:28.561Z,61.72
2023-03-01T03:58:57.009Z,65.57
2023-03-01T04:01:23.929Z,66.60
2023-03-01T04:03:55.432Z,63.17
2023-03-01T04:06:22.705Z,69.28
2023-03-01T04:08:51.976Z,65.00
2023-03-01T04:11:27.726Z,63.47
2023-03-01T04:13:59.041Z,76.50
2023-03-01T04:16:26.739Z,72.20
2023-03-01T04:18:54.493Z,73.32
2023-03-01T04:21:22.158Z,75.50
2023-03-01T04:23:49.432Z,74.03
2023-03-01T04:26:16.556Z,81.88
2023-03-01T04:28:46.141Z,75.28
2023-03-01T04:31:19.258Z,85.85
2023-03-01T04:33:56.116Z,89.28
2023-03-01T04:36:27.387Z,82.35
2023-03-01T04:38:56.350Z,71.47
2023-03-01T04:41:26.591Z,76.47
2023-03-01T04:43:54.093Z,65.07
2023-03-01T04:46:23.081Z,69.03
2023-03-01T04:48:50.494Z,72.85
2023-03-01T04:51:19.284Z,69.53
2023-03-01T04:53:47.000Z,63.67
2023-03-01T04:56:14.838Z,68.78
2023-03-01T04:58:42.424Z,64.57
2023-03-01T05:01:16.607Z,63.28
2023-03-01T05:03:45.757Z,59.40
2023-03-01T05:06:13.621Z,63.08
2023-03-01T05:08:42.260Z,61.17
2023-03-01T05:15:16.380Z,57.35
2023-03-01T05:17:43.645Z,65.55
2023-03-01T05:20:12.085Z,65.30
2023-03-01T05:22:39.452Z,63.40
2023-03-01T05:25:08.174Z,60.60
2023-03-01T05:27:36.729Z,58.27
2023-03-01T05:30:14.368Z,62.87
2023-03-01T05:32:56.701Z,60.50
2023-03-01T05:39:26.782Z,54.58
2023-03-01T05:42:57.629Z,50.80
2023-03-01T05:45:27.817Z,56.25
2023-03-01T05:47:56.057Z,57.00
2023-03-01T05:50:29.589Z,56.70
2023-03-01T05:53:11.309Z,56.28
2023-03-01T05:55:39.780Z,58.77
2023-03-01T05:59:22.348Z,65.03
2023-03-01T06:01:49.596Z,64.47
2023-03-01T06:04:17.773Z,70.53
2023-03-01T06:06:45.021Z,66.70
2023-03-01T06:09:12.056Z,69.00
2023-03-01T06:11:39.483Z,70.60
2023-03-01T06:14:08.859Z,65.28
2023-03-01T06:16:36.113Z,73.07
2023-03-01T06:19:03.089Z,69.60
2023-03-01T06:21:31.791Z,67.67
2023-03-01T06:23:58.744Z,69.60
2023-03-01T06:26:26.112Z,68.50
2023-03-01T06:28:53.086Z,66.50
2023-03-01T06:31:20.411Z,66.37
2023-03-01T06:33:47.327Z,61.63
2023-03-01T06:36:14.550Z,56.60
2023-03-01T06:38:41.674Z,65.20
2023-03-01T06:41:09.030Z,62.08
2023-03-01T06:43:36.108Z,61.50
2023-03-01T06:46:07.896Z,67.97
2023-03-01T06:48:35.656Z,57.15
2023-03-01T06:51:05.180Z,61.55
2023-03-01T06:53:32.328Z,66.45
2023-03-01T06:56:01.216Z,57.47
2023-03-01T06:58:28.239Z,60.37
2023-03-01T07:05:04.855Z,56.42
2023-03-01T07:07:32.213Z,58.67
2023-03-01T07:09:59.527Z,59.13
2023-03-01T07:12:26.465Z,59.05
2023-03-01T07:14:53.776Z,65.22
2023-03-01T07:17:20.943Z,64.85
2023-03-01T07:19:48.122Z,60.00
2023-03-01T07:22:16.136Z,61.13
2023-03-01T07:24:44.545Z,62.17
2023-03-01T07:30:41.371Z,54.58
2023-03-01T07:33:09.127Z,59.67
2023-03-01T07:35:36.157Z,55.88
2023-03-01T07:38:03.536Z,59.67
2023-03-01T07:40:30.625Z,50.47
2023-03-01T07:43:00.000Z,51.40
2023-03-01T07:45:30.992Z,53.35
2023-03-01T07:47:58.176Z,48.42
2023-03-01T07:50:26.832Z,52.47
2023-03-01T07:52:57.324Z,51.47
2023-03-01T07:55:24.373Z,54.17
2023-03-01T07:57:51.568Z,45.92
2023-03-01T08:00:19.053Z,50.22
2023-03-01T08:02:46.442Z,59.95
2023-03-01T08:05:13.660Z,52.50
2023-03-01T08:07:41.014Z,53.88
2023-03-01T08:10:08.884Z,72.30
2023-03-01T08:12:36.171Z,57.15
2023-03-01T08:15:04.546Z,60.05
2023-03-01T08:17:34.895Z,58.03
2023-03-01T08:20:07.887Z,62.17
2023-03-01T08:22:35.129Z,62.40
2023-03-01T08:25:03.664Z,56.75
2023-03-01T08:27:30.916Z,66.72
2023-03-01T08:29:57.906Z,55.47
2023-03-01T08:32:25.282Z,63.78
2023-03-01T08:34:52.299Z,64.63
2023-03-01T08:37:19.589Z,58.08
2023-03-01T08:39:48.029Z,56.92
2023-03-01T08:42:15.356Z,55.67
2023-03-01T08:44:42.417Z,58.58
2023-03-01T08:47:09.663Z,55.92
2023-03-01T08:49:36.685Z,50.33
2023-03-01T08:52:04.360Z,53.63
2023-03-01T08:54:31.478Z,50.63
2023-03-01T08:57:00.111Z,47.75
2023-03-01T08:59:27.743Z,43.75
2023-03-01T09:01:55.156Z,45.17
2023-03-01T09:04:22.392Z,45.30
2023-03-01T09:06:49.583Z,40.78
2023-03-01T09:09:18.535Z,35.97
2023-03-01T09:11:47.470Z,40.28
2023-03-01T09:14:15.186Z,37.42
2023-03-01T09:16:42.986Z,39.25
2023-03-01T09:19:10.092Z,36.88
2023-03-01T09:21:40.886Z,36.92
2023-03-01T09:24:15.704Z,34.25
2023-03-01T09:26:44.019Z,35.85
2023-03-01T09:29:12.817Z,34.70
2023-03-01T09:31:40.689Z,30.83
2023-03-01T09:34:08.385Z,30.58
2023-03-01T09:36:36.899Z,27.90
2023-03-01T09:40:00.560Z,26.27
2023-03-01T09:42:32.220Z,25.50
2023-03-01T09:45:17.568Z,24.73
2023-03-01T09:48:28.109Z,24.92
2023-03-01T09:50:56.017Z,24.30
2023-03-01T09:53:33.504Z,25.33
2023-03-01T09:56:20.313Z,22.45
2023-03-01T09:59:23.335Z,28.70
2023-03-01T10:02:22.230Z,28.08
2023-03-01T10:05:14.877Z,26.98
2023-03-01T10:08:30.026Z,29.30
2023-03-01T10:10:58.223Z,33.25
2023-03-01T10:13:46.594Z,27.63
2023-03-01T10:16:22.187Z,30.73
2023-03-01T10:19:00.477Z,28.13
2023-03-01T10:21:47.285Z,28.63
2023-03-01T10:24:22.525Z,25.08
2023-03-01T10:27:05.336Z,33.53
2023-03-01T10:30:13.652Z,28.73
2023-03-01T10:32:41.233Z,28.23
2023-03-01T10:35:22.318Z,27.17
2023-03-01T10:38:11.782Z,27.95
2023-03-01T10:41:00.140Z,25.05
2023-03-01T10:43:43.536Z,24.92
2023-03-01T10:46:31.708Z,25.17
2023-03-01T10:49:22.685Z,25.10
2023-03-01T10:51:53.955Z,24.52
2023-03-01T10:54:29.726Z,21.60
2023-03-01T10:57:06.394Z,22.63
2023-03-01T10:59:37.768Z,22.50
2023-03-01T11:02:26.192Z,24.08
2023-03-01T11:05:16.060Z,21.45
2023-03-01T11:07:59.893Z,21.40
2023-03-01T11:10:37.333Z,23.50
2023-03-01T11:13:20.683Z,20.50
2023-03-01T11:16:11.322Z,18.13
2023-03-01T11:18:47.996Z,19.27
2023-03-01T11:21:17.577Z,22.35
2023-03-01T11:23:47.900Z,19.85
2023-03-01T11:26:19.351Z,22.45
2023-03-01T11:29:02.417Z,20.70
2023-03-01T11:31:31.564Z,20.63
2023-03-01T11:34:17.164Z,19.88
2023-03-01T11:37:00.189Z,17.80
2023-03-01T11:40:13.172Z,18.73
2023-03-01T11:43:04.959Z,21.60
2023-03-01T11:45:47.663Z,20.98
2023-03-01T11:51:46.158Z,20.30
2023-03-01T11:54:57.487Z,21.45
2023-03-01T11:58:30.550Z,31.23
2023-03-01T12:01:13.297Z,26.42
2023-03-01T12:03:49.038Z,29.15
2023-03-01T12:06:25.468Z,22.95
2023-03-01T12:08:59.257Z,24.05
2023-03-01T12:12:07.684Z,21.58
2023-03-01T12:14:50.443Z,22.98
2023-03-01T12:17:17.874Z,22.65
2023-03-01T12:20:23.789Z,21.58
2023-03-01T12:23:29.020Z,20.08
2023-03-01T12:30:37.491Z,19.00
2023-03-01T12:33:46.041Z,19.77
2023-03-01T12:37:11.133Z,18.58
2023-03-01T12:40:18.336Z,21.73
2023-03-01T12:43:09.030Z,21.15
2023-03-01T12:45:55.477Z,28.52
2023-03-01T12:49:09.707Z,28.75
2023-03-01T12:51:41.069Z,17.55
2023-03-01T12:54:20.739Z,22.77
2023-03-01T12:56:53.421Z,19.27
2023-03-01T12:59:57.930Z,17.02
2023-03-01T13:02:45.712Z,17.48
2023-03-01T13:05:38.461Z,24.42
2023-03-01T13:08:40.289Z,17.10
2023-03-01T13:12:19.963Z,23.48
2023-03-01T13:14:47.562Z,21.20
2023-03-01T13:17:33.934Z,15.35
2023-03-01T13:20:01.393Z,36.55
2023-03-01T13:22:35.483Z,26.67
2023-03-01T13:25:19.424Z,32.58
2023-03-01T13:27:48.063Z,22.40
2023-03-01T13:30:37.851Z,19.70
2023-03-01T13:33:28.161Z,18.08
2023-03-01T13:35:58.780Z,17.95
2023-03-01T13:38:47.803Z,23.08
2023-03-01T13:41:38.325Z,19.83
2023-03-01T13:44:27.793Z,30.13
2023-03-01T13:47:18.377Z,20.17
2023-03-01T13:50:04.903Z,21.35
2023-03-01T13:52:46.117Z,19.77
2023-03-01T13:55:17.569Z,20.05
2023-03-01T13:57:54.506Z,21.48
2023-03-01T14:00:32.284Z,21.10
2023-03-01T14:03:13.349Z,26.42
2023-03-01T14:05:45.350Z,31.98
2023-03-01T14:08:26.068Z,17.45
2023-03-01T14:11:12.282Z,24.50
2023-03-01T14:14:09.811Z,30.73
2023-03-01T14:17:03.329Z,30.38
2023-03-01T14:19:34.090Z,21.23
2023-03-01T14:22:28.190Z,21.55
2023-03-01T14:24:58.674Z,19.58
2023-03-01T14:27:42.790Z,33.42
2023-03-01T14:30:26.090Z,22.35
2023-03-01T14:33:07.462Z,19.58
2023-03-01T14:35:37.790Z,21.35
2023-03-01T14:38:05.123Z,29.75
2023-03-01T14:40:37.592Z,19.88
2023-03-01T14:43:15.780Z,25.63
2023-03-01T14:45:50.474Z,25.77
2023-03-01T14:48:19.787Z,19.10
2023-03-01T14:50:47.637Z,22.02
2023-03-01T14:53:25.482Z,20.13
2023-03-01T14:55:56.903Z,18.67
2023-03-01T14:58:26.797Z,18.73
2023-03-01T15:01:04.822Z,17.15
2023-03-01T15:03:42.621Z,17.75
2023-03-01T15:06:12.909Z,29.40
2023-03-01T15:08:47.862Z,20.40
2023-03-01T15:11:14.748Z,19.17
2023-03-01T15:13:43.492Z,25.23
2023-03-01T15:16:19.788Z,18.58
2023-03-01T15:18:51.947Z,19.60
2023-03-01T15:21:30.586Z,30.52
2023-03-01T15:24:12.945Z,30.42
2023-03-01T15:26:47.736Z,22.88
2023-03-01T15:29:21.563Z,18.80
2023-03-01T15:32:07.313Z,24.38
2023-03-01T15:34:39.867Z,17.88
2023-03-01T15:37:36.472Z,18.38
2023-03-01T15:40:18.868Z,24.75
2023-03-01T15:42:46.333Z,23.00
2023-03-01T15:45:21.573Z,18.85
2023-03-01T15:47:53.698Z,20.38
2023-03-01T15:50:29.467Z,23.88
2023-03-01T15:53:00.556Z,24.95
2023-03-01T15:55:33.884Z,27.92
2023-03-01T15:58:15.488Z,21.17
2023-03-01T16:00:58.213Z,17.60
2023-03-01T16:03:31.429Z,18.58
2023-03-01T16:05:58.619Z,19.80
2023-03-01T16:08:25.595Z,16.05
2023-03-01T16:10:54.819Z,18.20
2023-03-01T16:13:22.031Z,18.58
2023-03-01T16:15:49.283Z,23.80
2023-03-01T16:18:16.430Z,25.90
2023-03-01T16:20:43.900Z,23.63
2023-03-01T16:23:12.581Z,19.73
2023-03-01T16:25:40.003Z,34.13
2023-03-01T16:28:11.097Z,35.88
2023-03-01T16:30:40.472Z,21.58
2023-03-01T16:33:24.520Z,22.00
2023-03-01T16:35:55.391Z,21.38
2023-03-01T16:38:22.581Z,19.67
2023-03-01T16:40:52.700Z,22.05
2023-03-01T16:43:20.138Z,19.65
2023-03-01T16:45:47.743Z,17.92
2023-03-01T16:48:15.355Z,18.58
2023-03-01T16:50:42.569Z,23.50
2023-03-01T16:53:09.802Z,35.33
2023-03-01T16:55:37.283Z,25.90
2023-03-01T16:58:05.288Z,44.47
2023-03-01T17:00:32.592Z,29.67
2023-03-01T17:02:59.858Z,31.35
2023-03-01T17:05:27.437Z,33.45
2023-03-01T17:07:56.604Z,32.42
2023-03-01T17:10:23.833Z,31.98
2023-03-01T17:12:51.194Z,37.53
2023-03-01T17:15:19.184Z,32.55
2023-03-01T17:17:46.105Z,31.98
2023-03-01T17:20:13.805Z,32.38
2023-03-01T17:22:40.845Z,32.30
2023-03-01T17:25:11.620Z,30.02
2023-03-01T17:27:39.852Z,33.15
2023-03-01T17:30:12.958Z,30.38
2023-03-01T17:32:40.510Z,32.83
2023-03-01T17:35:09.233Z,28.65
2023-03-01T17:37:37.070Z,28.13
2023-03-01T17:40:05.722Z,33.63
2023-03-01T17:42:33.426Z,27.63
2023-03-01T17:45:01.877Z,31.30
2023-03-01T17:47:30.161Z,32.95
2023-03-01T17:49:57.404Z,28.10
2023-03-01T17:52:24.381Z,28.25
2023-03-01T17:54:51.692Z,28.48
2023-03-01T17:57:18.658Z,28.20
2023-03-01T17:59:45.886Z,28.90
2023-03-01T18:02:13.524Z,28.20
2023-03-01T18:04:40.982Z,28.00
2023-03-01T18:07:11.009Z,27.95
2023-03-01T18:09:38.390Z,28.83
2023-03-01T18:12:05.365Z,24.58
2023-03-01T18:14:34.030Z,30.98
2023-03-01T18:17:06.138Z,27.38
2023-03-01T18:19:33.677Z,34.78
2023-03-01T18:22:00.691Z,32.15
2023-03-01T18:24:29.665Z,34.25
2023-03-01T18:26:56.711Z,35.05
2023-03-01T18:29:23.854Z,28.35
2023-03-01T18:31:51.440Z,33.33
2023-03-01T18:34:18.759Z,32.53
2023-03-01T18:37:00.467Z,31.60
2023-03-01T18:39:33.931Z,34.65
2023-03-01T18:42:01.065Z,29.98
2023-03-01T18:44:28.473Z,31.65
2023-03-01T18:46:58.212Z,29.75
2023-03-01T18:49:27.850Z,31.13
2023-03-01T18:51:55.389Z,31.55
2023-03-01T18:54:22.668Z,28.80
2023-03-01T18:56:49.810Z,27.52
2023-03-01T18:59:17.233Z,27.80
2023-03-01T19:01:44.423Z,25.65
2023-03-01T19:04:12.103Z,28.23
2023-03-01T19:06:39.380Z,24.73
2023-03-01T19:09:08.344Z,23.35
2023-03-01T19:11:35.824Z,22.92
2023-03-01T19:14:04.590Z,22.35
2023-03-01T19:16:34.066Z,23.70
2023-03-01T19:19:05.796Z,25.80
2023-03-01T19:21:34.069Z,30.67
2023-03-01T19:24:05.190Z,32.75
2023-03-01T19:26:33.410Z,33.08
2023-03-01T19:29:04.143Z,34.10
2023-03-01T19:31:32.996Z,41.13
2023-03-01T19:34:16.197Z,40.08
2023-03-01T19:36:44.456Z,36.35
2023-03-01T19:39:13.963Z,36.67
2023-03-01T19:41:42.487Z,38.15
2023-03-01T19:44:11.181Z,40.17
2023-03-01T19:46:39.072Z,38.60
2023-03-01T19:49:06.974Z,38.55
2023-03-01T19:51:36.474Z,36.47
2023-03-01T19:54:05.448Z,33.88
2023-03-01T19:56:33.690Z,37.67
2023-03-01T19:59:04.660Z,33.13
2023-03-01T20:01:34.776Z,35.38
2023-03-01T20:04:04.208Z,37.22
2023-03-01T20:06:31.830Z,30.73
2023-03-01T20:09:04.137Z,34.78
2023-03-01T20:11:35.931Z,32.92
2023-03-01T20:14:06.564Z,32.55
2023-03-01T20:16:34.018Z,34.88
2023-03-01T20:19:01.617Z,34.33
2023-03-01T20:21:28.910Z,37.50
2023-03-01T20:23:56.133Z,35.42
2023-03-01T20:26:25.635Z,35.55
2023-03-01T20:28:56.976Z,38.17
2023-03-01T20:31:29.876Z,38.38
2023-03-01T20:33:59.833Z,35.67
2023-03-01T20:36:28.356Z,37.13
2023-03-01T20:38:56.779Z,34.67
2023-03-01T20:41:26.740Z,33.58
2023-03-01T20:43:56.313Z,33.92
2023-03-01T20:46:26.518Z,32.55
2023-03-01T20:48:53.993Z,29.25
2023-03-01T20:51:21.379Z,33.17
2023-03-01T20:53:49.380Z,30.48
2023-03-01T20:56:20.173Z,31.20
2023-03-01T20:59:09.680Z,34.22
2023-03-01T21:01:38.540Z,37.95
2023-03-01T21:04:06.049Z,36.85
2023-03-01T21:06:33.463Z,36.30
2023-03-01T21:09:02.266Z,39.55
2023-03-01T21:11:29.249Z,37.30
2023-03-01T21:13:56.876Z,40.60
2023-03-01T21:16:24.481Z,42.40
2023-03-01T21:18:51.808Z,42.53
2023-03-01T21:21:22.716Z,40.53
2023-03-01T21:23:50.319Z,47.08
2023-03-01T21:26:20.365Z,43.53
2023-03-01T21:28:51.089Z,45.47
2023-03-01T21:31:22.584Z,42.67
2023-03-01T21:33:53.207Z,42.05
2023-03-01T21:36:22.741Z,39.25
2023-03-01T21:38:51.842Z,47.83
2023-03-01T21:41:24.075Z,49.40
2023-03-01T21:43:54.331Z,41.13
2023-03-01T21:46:24.699Z,41.10
2023-03-01T21:48:54.772Z,45.30
2023-03-01T21:51:26.620Z,47.90
2023-03-01T21:53:58.200Z,44.35
2023-03-01T21:56:29.930Z,52.95
2023-03-01T21:58:58.637Z,49.92
2023-03-01T22:01:28.273Z,51.63
2023-03-01T22:04:01.113Z,50.58
2023-03-01T22:06:35.106Z,50.78
2023-03-01T22:09:08.753Z,51.08
2023-03-01T22:11:39.650Z,53.92
2023-03-01T22:14:09.152Z,49.78
2023-03-01T22:16:38.000Z,57.33
2023-03-01T22:19:07.508Z,54.72
2023-03-01T22:21:39.152Z,60.63
2023-03-01T22:24:07.485Z,56.65
2023-03-01T22:26:39.228Z,59.72
2023-03-01T22:29:21.345Z,62.00
2023-03-01T22:31:49.552Z,44.05
2023-03-01T22:34:17.996Z,60.70
2023-03-01T22:36:45.980Z,63.60
2023-03-01T22:39:19.571Z,74.47
2023-03-01T22:41:49.173Z,71.07
2023-03-01T22:44:22.152Z,74.20
2023-03-01T22:46:50.293Z,75.43
2023-03-01T22:49:18.433Z,70.90
2023-03-01T22:51:47.546Z,75.60
2023-03-01T22:54:17.217Z,70.10
2023-03-01T22:56:44.437Z,63.97
2023-03-01T22:59:15.957Z,63.03
2023-03-01T23:01:46.487Z,69.97
2023-03-01T23:04:16.622Z,70.00
2023-03-01T23:06:55.884Z,69.57
2023-03-01T23:09:31.524Z,73.60
2023-03-01T23:12:01.500Z,75.22
2023-03-01T23:14:31.970Z,77.10
2023-03-01T23:17:01.453Z,74.00
2023-03-01T23:19:29.683Z,80.78
2023-03-01T23:21:57.578Z,70.45
2023-03-01T23:24:31.145Z,67.88
2023-03-01T23:27:01.276Z,72.57
2023-03-01T23:29:28.685Z,78.45
2023-03-01T23:31:57.614Z,72.38
2023-03-01T23:34:26.785Z,72.55
2023-03-01T23:36:55.300Z,71.70
2023-03-01T23:39:22.654Z,72.88
2023-03-01T23:41:50.104Z,75.43
2023-03-01T23:44:20.783Z,73.65
2023-03-01T23:46:49.807Z,73.68
2023-03-01T23:49:20.269Z,76.45
2023-03-01T23:51:48.183Z,79.72
2023-03-01T23:54:19.387Z,79.82
2023-03-01T23:56:47.021Z,75.97
2023-03-01T23:59:18.435Z,78.40
